Aeroporto :
LOGIN :

Iscrizione | Disclaimer

   EN    FR    IT 

 










Sommario :    VFR   VFR Marginale   IFR   IFR Intensivo   IFR Molto Intensivo
Visibilità : 
Base nubi : 
>= 8 km
>= 3000ft
5 / 8 km
1000 / 3000 ft
1500m / 5 km
500 / 1000 ft
800 / 1500m
200 / 500 ft
< 800m
< 200 ft
Simboli :   Temporali  Nebbia  Neve Forte  Precipitazioni Forti  Vento > 20 kt
SIGMETs :   Varie  Temporali  Ghiacco  Turbolenza  Onda orograficha  Ceneri Vulcaniche






- Altitudine del aeroporto : 161 ft


LRTZ - Tuzla Romania

ULTIMO METAR :
  • 191100Z 02012KT 9999 FEW035 SCT200 18/05 Q1024 BLU BLU

METARs OBSOLETI :
  • 191000Z 02012KT 9999 FEW035 SCT200 18/05 Q1024 BLU BLU

TAF TAF LRTZ
Valido dal 19 a 12 ore il 20 a 12 ore UTC


191100Z 1912/2012 03010KT 9999 SCT200
TEMPO 1912/1918 FEW035
BECMG 1919/1921 VRB03KT SKC
TEMPO 2001/2005 BKN015



MetMap, La meteo Aeronautica in un colpo d'occhio ! - Copyright ORBIFLY Dicembre 2007 - Disclaimer

ORBIFLY MET'MAP TEAM :

Programmazione e sviluppo : Alexandra Zaïnal
Concezione : Baudouin d'Aumeries
Aiuto per la programmazione : Marc-Olivier Méhu
Supporto tecnico e logistico : Manuel Goepfert
Aiuto per la traduzione : Arnaldo La Scala

Contatto : metmap@orbifly.com




FONTI E CREDITI :

   NOAA